^^
Station Historical Data
Daily Summary for February 4, 2017 Units:  English    Metric   Both
« Previous Day
Next Day »
Daily Weekly Monthly Yearly Custom
  High: Low: Average:
Temperature: 33.1 °F 18.4 °F 25.1 °F
Dew Point: 14.8 °F 4.5 °F 9.3 °F
Humidity: 67 % 39 % 51 %
Wind Speed: 16.8 mph 0.0 mph 5.1 mph
Wind Gust: 25.3 mph - -
Wind:- - West
Pressure: 30.47 in 30.28 in -
Precipitation: 0.00 in    
Historical Graphs
 
 
Tabular Data for February 4, 2017
Time Temperature Dew Point Pressure Wind Wind Speed Wind Gust Humidity Rainfall Rate (Hourly) solar Conditions
00:03 23.4 °F 6.6 °F 30.30 in WNW 9.5 mph 17.3 mph 48 % 0.00 in 0.0 W/m2 CLR
00:08 23.2 °F 6.4 °F 30.30 in North 11.4 mph 15.0 mph 48 % 0.00 in 0.0 W/m2 CLR
00:13 23.1 °F 6.7 °F 30.30 in NNW 6.3 mph 9.2 mph 49 % 0.00 in 0.0 W/m2 CLR
00:18 23.0 °F 6.7 °F 30.30 in NW 11.1 mph 20.7 mph 49 % 0.00 in 0.0 W/m2 CLR
00:23 23.0 °F 6.2 °F 30.30 in WNW 14.6 mph 20.7 mph 48 % 0.00 in 0.0 W/m2 CLR
00:28 23.0 °F 6.7 °F 30.30 in NW 13.8 mph 17.3 mph 49 % 0.00 in 0.0 W/m2 CLR
00:33 22.8 °F 6.5 °F 30.31 in NW 13.5 mph 23.0 mph 49 % 0.00 in 0.0 W/m2 CLR
00:38 22.8 °F 6.9 °F 30.31 in NW 11.2 mph 16.1 mph 50 % 0.00 in 0.0 W/m2 CLR
00:43 22.6 °F 7.2 °F 30.31 in NW 10.3 mph 19.6 mph 51 % 0.00 in 0.0 W/m2 CLR
00:48 22.4 °F 7.0 °F 30.31 in NW 16.5 mph 25.3 mph 51 % 0.00 in 0.0 W/m2 CLR
00:53 22.2 °F 7.2 °F 30.32 in WSW 14.4 mph 20.0 mph 52 % 0.00 in 0.0 W/m2 CLR
00:58 22.1 °F 7.1 °F 30.32 in NW 12.3 mph 19.6 mph 52 % 0.00 in 0.0 W/m2 CLR
01:03 22.0 °F 7.0 °F 30.32 in WNW 10.2 mph 13.8 mph 52 % 0.00 in 0.0 W/m2 CLR
01:08 21.9 °F 6.5 °F 30.33 in NW 10.7 mph 18.4 mph 51 % 0.00 in 0.0 W/m2 CLR
01:13 21.8 °F 6.4 °F 30.33 in NW 14.2 mph 20.7 mph 51 % 0.00 in 0.0 W/m2 CLR
01:19 21.7 °F 5.9 °F 30.33 in NW 14.7 mph 25.0 mph 50 % 0.00 in 0.0 W/m2 CLR
01:24 21.6 °F 5.4 °F 30.33 in WNW 16.8 mph 21.9 mph 49 % 0.00 in 0.0 W/m2 CLR
01:29 21.5 °F 5.3 °F 30.34 in NW 15.1 mph 25.3 mph 49 % 0.00 in 0.0 W/m2 CLR
01:34 21.3 °F 5.1 °F 30.34 in WNW 14.1 mph 19.6 mph 49 % 0.00 in 0.0 W/m2 CLR
01:39 21.2 °F 5.0 °F 30.34 in NW 11.4 mph 22.0 mph 49 % 0.00 in 0.0 W/m2 CLR
01:44 21.1 °F 4.9 °F 30.34 in NNW 8.8 mph 17.3 mph 49 % 0.00 in 0.0 W/m2 CLR
01:49 21.0 °F 5.2 °F 30.34 in NW 7.6 mph 12.7 mph 50 % 0.00 in 0.0 W/m2 CLR
01:54 20.9 °F 5.2 °F 30.35 in NW 4.6 mph 8.1 mph 50 % 0.00 in 0.0 W/m2 CLR
01:59 20.8 °F 5.1 °F 30.35 in NW 7.3 mph 11.5 mph 50 % 0.00 in 0.0 W/m2 CLR
02:04 20.7 °F 5.0 °F 30.35 in NW 4.0 mph 8.1 mph 50 % 0.00 in 0.0 W/m2 CLR
02:09 20.6 °F 4.9 °F 30.35 in NW 4.4 mph 9.2 mph 50 % 0.00 in 0.0 W/m2 CLR
02:14 20.4 °F 5.1 °F 30.35 in NW 3.5 mph 8.1 mph 51 % 0.00 in 0.0 W/m2 CLR
02:19 20.4 °F 5.1 °F 30.36 in WNW 5.1 mph 9.2 mph 51 % 0.00 in 0.0 W/m2 CLR
02:24 20.4 °F 5.1 °F 30.36 in WNW 7.0 mph 13.0 mph 51 % 0.00 in 0.0 W/m2 CLR
02:29 20.3 °F 5.0 °F 30.36 in West 7.8 mph 11.5 mph 51 % 0.00 in 0.0 W/m2 CLR
02:34 20.2 °F 4.9 °F 30.36 in NW 2.9 mph 6.0 mph 51 % 0.00 in 0.0 W/m2 CLR
02:39 20.0 °F 4.7 °F 30.36 in West 4.6 mph 9.2 mph 51 % 0.00 in 0.0 W/m2 CLR
02:44 20.1 °F 4.8 °F 30.36 in NW 9.9 mph 16.1 mph 51 % 0.00 in 0.0 W/m2 CLR
02:49 20.1 °F 4.8 °F 30.36 in West 7.2 mph 12.7 mph 51 % 0.00 in 0.0 W/m2 CLR
02:54 20.0 °F 4.7 °F 30.36 in NNW 5.5 mph 11.5 mph 51 % 0.00 in 0.0 W/m2 CLR
02:59 20.0 °F 4.7 °F 30.36 in WNW 2.2 mph 5.0 mph 51 % 0.00 in 0.0 W/m2 CLR
03:04 19.9 °F 4.7 °F 30.36 in NW 2.4 mph 11.5 mph 51 % 0.00 in 0.0 W/m2 CLR
03:09 19.9 °F 5.1 °F 30.36 in WNW 6.6 mph 14.0 mph 52 % 0.00 in 0.0 W/m2 CLR
03:14 19.8 °F 5.0 °F 30.36 in WNW 8.4 mph 16.1 mph 52 % 0.00 in 0.0 W/m2 CLR
03:19 19.8 °F 4.6 °F 30.36 in NW 7.7 mph 11.5 mph 51 % 0.00 in 0.0 W/m2 CLR
03:24 19.9 °F 4.7 °F 30.37 in WNW 7.2 mph 11.5 mph 51 % 0.00 in 0.0 W/m2 CLR
03:29 19.9 °F 5.1 °F 30.37 in WNW 10.2 mph 13.8 mph 52 % 0.00 in 0.0 W/m2 CLR
03:34 19.8 °F 5.0 °F 30.37 in West 7.0 mph 9.2 mph 52 % 0.00 in 0.0 W/m2 CLR
03:39 19.8 °F 4.6 °F 30.37 in WNW 8.3 mph 16.1 mph 51 % 0.00 in 0.0 W/m2 CLR
03:44 19.7 °F 4.5 °F 30.37 in WNW 3.8 mph 18.4 mph 51 % 0.00 in 0.0 W/m2 CLR
03:49 19.7 °F 4.9 °F 30.37 in WNW 6.4 mph 11.5 mph 52 % 0.00 in 0.0 W/m2 CLR
03:54 19.6 °F 4.8 °F 30.37 in WNW 5.6 mph 9.0 mph 52 % 0.00 in 0.0 W/m2 CLR
03:59 19.6 °F 4.8 °F 30.38 in NW 5.5 mph 11.5 mph 52 % 0.00 in 0.0 W/m2 CLR
04:04 19.5 °F 4.7 °F 30.38 in WNW 5.3 mph 9.2 mph 52 % 0.00 in 0.0 W/m2 CLR
04:09 19.5 °F 4.7 °F 30.38 in WNW 8.5 mph 12.7 mph 52 % 0.00 in 0.0 W/m2 CLR
04:14 19.5 °F 4.7 °F 30.38 in West 7.2 mph 10.4 mph 52 % 0.00 in 0.0 W/m2 CLR
04:19 19.5 °F 4.7 °F 30.38 in WNW 10.2 mph 15.0 mph 52 % 0.00 in 0.0 W/m2 CLR
04:24 19.4 °F 5.0 °F 30.38 in WNW 9.2 mph 9.2 mph 53 % 0.00 in 0.0 W/m2 CLR
04:29 19.4 °F 5.0 °F 30.38 in WNW 6.7 mph 17.3 mph 53 % 0.00 in 0.0 W/m2 CLR
04:34 19.4 °F 5.0 °F 30.38 in West 8.7 mph 11.5 mph 53 % 0.00 in 0.0 W/m2 CLR
04:39 19.4 °F 5.0 °F 30.38 in NW 6.7 mph 11.5 mph 53 % 0.00 in 0.0 W/m2 CLR
04:44 19.3 °F 4.9 °F 30.38 in NW 7.1 mph 11.5 mph 53 % 0.00 in 0.0 W/m2 CLR
04:49 19.2 °F 5.3 °F 30.38 in NW 9.9 mph 12.7 mph 54 % 0.00 in 0.0 W/m2 CLR
04:54 19.2 °F 5.3 °F 30.38 in WNW 3.5 mph 4.6 mph 54 % 0.00 in 0.0 W/m2 CLR
04:59 19.2 °F 5.3 °F 30.38 in WNW 3.8 mph 13.8 mph 54 % 0.00 in 0.0 W/m2 CLR
05:04 19.2 °F 5.3 °F 30.39 in WNW 6.1 mph 10.0 mph 54 % 0.00 in 0.0 W/m2 CLR
05:09 19.1 °F 5.2 °F 30.39 in West 9.8 mph 11.5 mph 54 % 0.00 in 0.0 W/m2 CLR
05:14 19.2 °F 5.7 °F 30.39 in NW 4.8 mph 13.8 mph 55 % 0.00 in 0.0 W/m2 CLR
05:19 19.2 °F 5.7 °F 30.39 in NW 8.0 mph 11.5 mph 55 % 0.00 in 0.0 W/m2 CLR
05:24 19.2 °F 5.7 °F 30.40 in WNW 5.9 mph 10.4 mph 55 % 0.00 in 0.0 W/m2 CLR
05:29 19.2 °F 5.7 °F 30.40 in WNW 5.8 mph 13.8 mph 55 % 0.00 in 0.0 W/m2 CLR
05:34 19.3 °F 5.7 °F 30.40 in WNW 7.1 mph 12.0 mph 55 % 0.00 in 0.0 W/m2 CLR
05:39 19.3 °F 5.7 °F 30.41 in WNW 4.8 mph 11.5 mph 55 % 0.00 in 0.0 W/m2 CLR
05:44 19.3 °F 5.7 °F 30.41 in NW 7.7 mph 10.4 mph 55 % 0.00 in 0.0 W/m2 CLR
05:49 19.3 °F 5.7 °F 30.41 in WNW 8.9 mph 15.0 mph 55 % 0.00 in 0.0 W/m2 CLR
05:55 19.3 °F 5.7 °F 30.41 in WNW 8.2 mph 12.7 mph 55 % 0.00 in 0.0 W/m2 CLR
06:00 19.3 °F 5.7 °F 30.40 in WSW 7.1 mph 11.5 mph 55 % 0.00 in 0.0 W/m2 CLR
06:05 19.3 °F 5.7 °F 30.41 in WNW 3.5 mph 9.2 mph 55 % 0.00 in 0.0 W/m2 CLR
06:10 19.3 °F 5.7 °F 30.41 in WNW 7.0 mph 12.0 mph 55 % 0.00 in 0.0 W/m2 CLR
06:15 19.2 °F 5.7 °F 30.41 in WNW 6.5 mph 9.2 mph 55 % 0.00 in 0.0 W/m2 CLR
06:20 19.2 °F 6.1 °F 30.41 in WNW 7.7 mph 12.7 mph 56 % 0.00 in 0.0 W/m2 CLR
06:25 19.2 °F 6.1 °F 30.41 in WNW 10.1 mph 17.3 mph 56 % 0.00 in 0.0 W/m2 CLR
06:30 19.2 °F 6.1 °F 30.41 in WNW 4.1 mph 11.5 mph 56 % 0.00 in 0.0 W/m2 CLR
06:35 19.2 °F 6.1 °F 30.41 in WNW 4.6 mph 9.0 mph 56 % 0.00 in 0.0 W/m2 CLR
06:40 19.2 °F 6.4 °F 30.42 in West 0.9 mph 4.0 mph 57 % 0.00 in 0.0 W/m2 CLR
06:45 19.1 °F 6.3 °F 30.42 in WSW 2.8 mph 5.8 mph 57 % 0.00 in 0.0 W/m2 CLR
06:50 19.0 °F 6.3 °F 30.42 in SW 3.0 mph 4.6 mph 57 % 0.00 in 0.0 W/m2 CLR
06:55 18.9 °F 6.5 °F 30.42 in SW 1.9 mph 3.5 mph 58 % 0.00 in 0.0 W/m2 CLR
07:00 18.8 °F 6.4 °F 30.42 in SW 2.2 mph 3.5 mph 58 % 0.00 in 0.0 W/m2 OVC
07:05 18.7 °F 6.7 °F 30.42 in SW 3.5 mph 6.0 mph 59 % 0.00 in 0.0 W/m2 OVC
07:10 18.6 °F 6.6 °F 30.43 in SW 2.0 mph 3.5 mph 59 % 0.00 in 5.0 W/m2 OVC
07:15 18.5 °F 6.5 °F 30.43 in SSW 3.5 mph 4.6 mph 59 % 0.00 in 7.0 W/m2 OVC
07:20 18.5 °F 6.9 °F 30.43 in SW 2.8 mph 3.5 mph 60 % 0.00 in 9.0 W/m2 OVC
07:25 18.4 °F 6.8 °F 30.43 in SW 3.6 mph 5.8 mph 60 % 0.00 in 12.0 W/m2 OVC
07:30 18.5 °F 7.3 °F 30.43 in SSW 3.9 mph 6.9 mph 61 % 0.00 in 14.0 W/m2 CLR
07:35 18.8 °F 7.6 °F 30.43 in SW 3.8 mph 5.8 mph 61 % 0.00 in 16.0 W/m2 CLR
07:40 19.0 °F 7.4 °F 30.43 in SW 4.0 mph 5.8 mph 60 % 0.00 in 19.0 W/m2 FEW
07:45 19.2 °F 7.6 °F 30.43 in WSW 2.8 mph 3.5 mph 60 % 0.00 in 25.0 W/m2 FEW
07:50 19.3 °F 7.7 °F 30.44 in SW 2.8 mph 3.5 mph 60 % 0.00 in 32.0 W/m2 FEW
07:55 19.5 °F 7.9 °F 30.44 in WSW 3.1 mph 5.0 mph 60 % 0.00 in 42.0 W/m2 FEW
08:00 19.7 °F 8.0 °F 30.44 in WSW 2.4 mph 3.5 mph 60 % 0.00 in 44.0 W/m2 SCT
08:05 19.9 °F 7.9 °F 30.44 in WSW 3.0 mph 4.6 mph 59 % 0.00 in 63.0 W/m2 FEW
08:10 20.1 °F 8.4 °F 30.44 in West 1.2 mph 3.5 mph 60 % 0.00 in 95.0 W/m2 CLR
08:15 20.4 °F 8.3 °F 30.45 in WSW 3.6 mph 6.9 mph 59 % 0.00 in 93.0 W/m2 CLR
08:20 20.6 °F 8.1 °F 30.45 in WSW 7.9 mph 13.8 mph 58 % 0.00 in 109.0 W/m2 CLR
08:25 20.7 °F 8.2 °F 30.45 in WSW 4.2 mph 5.8 mph 58 % 0.00 in 77.0 W/m2 CLR
08:30 20.9 °F 8.0 °F 30.46 in WSW 4.8 mph 8.0 mph 57 % 0.00 in 83.0 W/m2 FEW
08:35 21.1 °F 8.2 °F 30.46 in WSW 4.0 mph 6.9 mph 57 % 0.00 in 90.0 W/m2 SCT
08:40 21.4 °F 8.5 °F 30.46 in SW 6.1 mph 10.4 mph 57 % 0.00 in 83.0 W/m2 SCT
08:45 21.4 °F 8.5 °F 30.46 in WSW 9.5 mph 11.5 mph 57 % 0.00 in 102.0 W/m2 SCT
08:50 21.7 °F 8.8 °F 30.46 in SW 7.3 mph 9.2 mph 57 % 0.00 in 114.0 W/m2 SCT
08:55 22.0 °F 8.7 °F 30.47 in West 8.9 mph 11.5 mph 56 % 0.00 in 236.0 W/m2 CLR
09:00 22.2 °F 8.9 °F 30.47 in WSW 8.1 mph 11.5 mph 56 % 0.00 in 179.0 W/m2 CLR
09:05 22.4 °F 9.1 °F 30.47 in West 8.6 mph 12.7 mph 56 % 0.00 in 202.0 W/m2 FEW
09:10 22.6 °F 8.8 °F 30.47 in West 8.7 mph 11.5 mph 55 % 0.00 in 60.0 W/m2 BKN
09:15 23.1 °F 8.9 °F 30.47 in WSW 9.5 mph 13.8 mph 54 % 0.00 in 211.0 W/m2 CLR
09:20 23.1 °F 8.9 °F 30.47 in WNW 5.7 mph 13.8 mph 54 % 0.00 in 281.0 W/m2 CLR
09:25 23.2 °F 8.6 °F 30.47 in West 8.8 mph 17.3 mph 53 % 0.00 in 353.0 W/m2 CLR
09:30 23.2 °F 8.6 °F 30.46 in West 10.6 mph 16.1 mph 53 % 0.00 in 295.0 W/m2 CLR
09:35 23.5 °F 8.9 °F 30.46 in NW 9.1 mph 11.5 mph 53 % 0.00 in 272.0 W/m2 CLR
09:40 24.0 °F 8.9 °F 30.46 in West 7.8 mph 11.5 mph 52 % 0.00 in 396.0 W/m2 CLR
09:45 24.3 °F 9.2 °F 30.46 in West 9.8 mph 12.7 mph 52 % 0.00 in 424.0 W/m2 CLR
09:50 24.3 °F 8.7 °F 30.46 in West 9.2 mph 11.5 mph 51 % 0.00 in 434.0 W/m2 CLR
09:55 24.7 °F 9.1 °F 30.46 in West 5.5 mph 11.5 mph 51 % 0.00 in 452.0 W/m2 CLR
10:00 24.6 °F 9.0 °F 30.46 in WNW 8.7 mph 11.5 mph 51 % 0.00 in 390.0 W/m2 CLR
10:05 24.4 °F 8.8 °F 30.46 in SW 10.3 mph 15.0 mph 51 % 0.00 in 404.0 W/m2 CLR
10:10 24.8 °F 9.2 °F 30.47 in WSW 8.2 mph 11.5 mph 51 % 0.00 in 301.0 W/m2 CLR
10:15 24.9 °F 8.9 °F 30.46 in WNW 7.0 mph 10.4 mph 50 % 0.00 in 413.0 W/m2 CLR
10:20 25.0 °F 9.0 °F 30.46 in West 5.8 mph 7.0 mph 50 % 0.00 in 265.0 W/m2 CLR
10:25 25.4 °F 9.3 °F 30.46 in WNW 8.2 mph 13.0 mph 50 % 0.00 in 288.0 W/m2 CLR
10:30 25.3 °F 8.8 °F 30.46 in West 6.1 mph 12.7 mph 49 % 0.00 in 371.0 W/m2 CLR
10:35 26.0 °F 9.0 °F 30.46 in West 10.6 mph 16.1 mph 48 % 0.00 in 144.0 W/m2 SCT
10:40 26.2 °F 8.7 °F 30.45 in WNW 8.6 mph 11.5 mph 47 % 0.00 in 251.0 W/m2 BKN
10:45 27.1 °F 9.5 °F 30.45 in NW 2.9 mph 9.2 mph 47 % 0.00 in 445.0 W/m2 CLR
10:51 26.9 °F 8.8 °F 30.45 in WNW 8.5 mph 15.0 mph 46 % 0.00 in 214.0 W/m2 BKN
10:56 26.5 °F 8.5 °F 30.45 in WNW 7.9 mph 10.4 mph 46 % 0.00 in 339.0 W/m2 CLR
11:01 26.8 °F 9.7 °F 30.44 in WSW 4.3 mph 9.2 mph 48 % 0.00 in 281.0 W/m2 FEW
11:06 27.1 °F 9.5 °F 30.44 in West 9.8 mph 16.0 mph 47 % 0.00 in 341.0 W/m2 CLR
11:11 26.7 °F 9.1 °F 30.44 in SW 4.8 mph 10.4 mph 47 % 0.00 in 352.0 W/m2 FEW
11:16 27.3 °F 9.7 °F 30.44 in WNW 4.7 mph 8.1 mph 47 % 0.00 in 357.0 W/m2 FEW
11:21 27.3 °F 9.7 °F 30.44 in WSW 5.7 mph 8.1 mph 47 % 0.00 in 575.0 W/m2 CLR
11:26 27.4 °F 9.3 °F 30.43 in NW 6.7 mph 12.7 mph 46 % 0.00 in 589.0 W/m2 CLR
11:31 27.7 °F 9.6 °F 30.43 in West 8.8 mph 11.5 mph 46 % 0.00 in 592.0 W/m2 CLR
11:36 27.3 °F 9.2 °F 30.43 in WSW 5.8 mph 8.1 mph 46 % 0.00 in 594.0 W/m2 CLR
11:41 27.5 °F 9.4 °F 30.43 in SW 8.6 mph 11.5 mph 46 % 0.00 in 599.0 W/m2 CLR
11:46 27.9 °F 9.8 °F 30.43 in WNW 9.3 mph 14.0 mph 46 % 0.00 in 601.0 W/m2 CLR
11:51 28.4 °F 9.2 °F 30.42 in West 3.2 mph 9.2 mph 44 % 0.00 in 601.0 W/m2 CLR
11:56 28.8 °F 10.1 °F 30.42 in SSW 7.5 mph 12.7 mph 45 % 0.00 in 601.0 W/m2 CLR
12:01 28.6 °F 9.4 °F 30.42 in WNW 4.7 mph 6.9 mph 44 % 0.00 in 605.0 W/m2 CLR
12:06 29.0 °F 9.8 °F 30.42 in WSW 8.3 mph 11.5 mph 44 % 0.00 in 605.0 W/m2 CLR
12:11 28.7 °F 9.0 °F 30.41 in WSW 7.6 mph 10.4 mph 43 % 0.00 in 608.0 W/m2 CLR
12:16 28.8 °F 9.6 °F 30.41 in SW 3.5 mph 13.0 mph 44 % 0.00 in 605.0 W/m2 CLR
12:21 29.1 °F 9.4 °F 30.41 in West 5.3 mph 11.5 mph 43 % 0.00 in 606.0 W/m2 CLR
12:26 29.4 °F 9.6 °F 30.40 in SW 4.8 mph 8.1 mph 43 % 0.00 in 603.0 W/m2 CLR
12:31 29.8 °F 8.9 °F 30.40 in WSW 9.3 mph 11.5 mph 41 % 0.00 in 605.0 W/m2 CLR
12:36 29.8 °F 9.5 °F 30.40 in SW 6.1 mph 12.7 mph 42 % 0.00 in 599.0 W/m2 CLR
12:41 30.0 °F 9.1 °F 30.40 in West 7.3 mph 9.2 mph 41 % 0.00 in 598.0 W/m2 CLR
12:46 30.2 °F 9.3 °F 30.39 in WSW 9.6 mph 10.4 mph 41 % 0.00 in 594.0 W/m2 CLR
12:51 30.5 °F 10.1 °F 30.39 in West 6.9 mph 12.7 mph 42 % 0.00 in 585.0 W/m2 CLR
12:56 30.3 °F 9.9 °F 30.38 in West 10.7 mph 16.0 mph 42 % 0.00 in 585.0 W/m2 CLR
13:01 30.4 °F 10.0 °F 30.38 in SW 7.9 mph 18.4 mph 42 % 0.00 in 577.0 W/m2 CLR
13:06 31.2 °F 10.7 °F 30.38 in West 5.8 mph 9.0 mph 42 % 0.00 in 577.0 W/m2 CLR
13:11 30.8 °F 9.8 °F 30.37 in WSW 8.0 mph 15.0 mph 41 % 0.00 in 571.0 W/m2 CLR
13:16 31.4 °F 10.9 °F 30.37 in NW 5.4 mph 9.2 mph 42 % 0.00 in 561.0 W/m2 CLR
13:21 31.4 °F 10.4 °F 30.37 in WSW 6.5 mph 9.2 mph 41 % 0.00 in 468.0 W/m2 CLR
13:27 31.2 °F 9.6 °F 30.37 in WSW 9.8 mph 16.1 mph 40 % 0.00 in 548.0 W/m2 CLR
13:32 31.2 °F 10.2 °F 30.37 in West 5.4 mph 15.0 mph 41 % 0.00 in 547.0 W/m2 CLR
13:37 31.6 °F 10.6 °F 30.37 in WSW 4.4 mph 15.0 mph 41 % 0.00 in 543.0 W/m2 CLR
13:42 31.6 °F 10.6 °F 30.37 in SW 8.7 mph 11.5 mph 41 % 0.00 in 533.0 W/m2 CLR
13:47 31.5 °F 10.5 °F 30.37 in WSW 5.0 mph 8.1 mph 41 % 0.00 in 524.0 W/m2 CLR
13:52 31.9 °F 10.8 °F 30.37 in WSW 6.0 mph 11.5 mph 41 % 0.00 in 510.0 W/m2 CLR
13:57 31.9 °F 10.8 °F 30.36 in SSW 8.3 mph 12.7 mph 41 % 0.00 in 512.0 W/m2 CLR
14:02 32.3 °F 10.6 °F 30.36 in WNW 8.4 mph 13.0 mph 40 % 0.00 in 499.0 W/m2 CLR
14:07 32.3 °F 10.6 °F 30.36 in SW 11.0 mph 17.3 mph 40 % 0.00 in 497.0 W/m2 CLR
14:12 32.3 °F 10.6 °F 30.36 in SW 6.9 mph 14.0 mph 40 % 0.00 in 489.0 W/m2 CLR
14:17 31.9 °F 10.3 °F 30.36 in WNW 6.8 mph 9.2 mph 40 % 0.00 in 471.0 W/m2 CLR
14:22 32.1 °F 9.9 °F 30.36 in West 5.1 mph 12.7 mph 39 % 0.00 in 443.0 W/m2 CLR
14:27 32.2 °F 10.5 °F 30.36 in WSW 11.4 mph 15.0 mph 40 % 0.00 in 445.0 W/m2 CLR
14:32 32.2 °F 10.5 °F 30.36 in West 9.6 mph 14.0 mph 40 % 0.00 in 439.0 W/m2 CLR
14:37 32.4 °F 10.7 °F 30.36 in SW 8.4 mph 11.5 mph 40 % 0.00 in 425.0 W/m2 CLR
14:42 32.7 °F 10.4 °F 30.36 in SSW 8.2 mph 11.5 mph 39 % 0.00 in 411.0 W/m2 CLR
14:47 33.1 °F 10.8 °F 30.35 in WSW 7.1 mph 10.4 mph 39 % 0.00 in 403.0 W/m2 CLR
14:52 32.8 °F 10.5 °F 30.35 in WSW 2.8 mph 8.1 mph 39 % 0.00 in 381.0 W/m2 CLR
14:57 32.6 °F 10.3 °F 30.36 in WSW 6.6 mph 9.2 mph 39 % 0.00 in 376.0 W/m2 CLR
15:02 32.7 °F 10.4 °F 30.36 in West 7.2 mph 15.0 mph 39 % 0.00 in 353.0 W/m2 CLR
15:07 32.7 °F 10.4 °F 30.35 in West 5.9 mph 10.4 mph 39 % 0.00 in 336.0 W/m2 CLR
15:12 33.1 °F 10.8 °F 30.35 in SW 9.7 mph 13.8 mph 39 % 0.00 in 330.0 W/m2 CLR
15:17 32.9 °F 10.6 °F 30.35 in WSW 5.3 mph 11.5 mph 39 % 0.00 in 306.0 W/m2 CLR
15:22 32.8 °F 10.5 °F 30.35 in WSW 10.9 mph 17.3 mph 39 % 0.00 in 267.0 W/m2 CLR
15:27 32.7 °F 10.4 °F 30.35 in WSW 12.5 mph 16.0 mph 39 % 0.00 in 283.0 W/m2 CLR
15:32 32.7 °F 10.4 °F 30.35 in SSW 6.8 mph 11.5 mph 39 % 0.00 in 265.0 W/m2 CLR
15:37 32.5 °F 10.3 °F 30.35 in WSW 7.8 mph 9.2 mph 39 % 0.00 in 195.0 W/m2 CLR
15:42 32.4 °F 10.2 °F 30.35 in WSW 6.0 mph 8.1 mph 39 % 0.00 in 188.0 W/m2 CLR
15:47 32.4 °F 10.2 °F 30.35 in SW 7.6 mph 14.0 mph 39 % 0.00 in 199.0 W/m2 CLR
15:52 32.4 °F 10.2 °F 30.34 in SW 6.2 mph 13.8 mph 39 % 0.00 in 176.0 W/m2 CLR
15:57 32.4 °F 10.2 °F 30.34 in WSW 5.7 mph 13.8 mph 39 % 0.00 in 202.0 W/m2 CLR
16:02 32.5 °F 10.3 °F 30.34 in WSW 5.2 mph 10.4 mph 39 % 0.00 in 181.0 W/m2 CLR
16:07 32.5 °F 10.3 °F 30.34 in WSW 10.4 mph 15.0 mph 39 % 0.00 in 100.0 W/m2 CLR
16:12 32.1 °F 10.5 °F 30.34 in West 6.0 mph 10.4 mph 40 % 0.00 in 93.0 W/m2 SCT
16:17 32.1 °F 11.0 °F 30.34 in SW 5.8 mph 9.2 mph 41 % 0.00 in 91.0 W/m2 FEW
16:22 32.1 °F 11.0 °F 30.34 in WNW 4.5 mph 8.1 mph 41 % 0.00 in 67.0 W/m2 SCT
16:28 32.2 °F 11.1 °F 30.34 in WSW 3.4 mph 5.8 mph 41 % 0.00 in 77.0 W/m2 FEW
16:33 32.2 °F 11.1 °F 30.34 in SW 6.2 mph 13.8 mph 41 % 0.00 in 58.0 W/m2 FEW
16:38 32.0 °F 10.9 °F 30.34 in West 5.5 mph 12.7 mph 41 % 0.00 in 40.0 W/m2 SCT
16:43 31.8 °F 10.7 °F 30.34 in West 2.0 mph 3.5 mph 41 % 0.00 in 33.0 W/m2 SCT
16:48 31.7 °F 10.7 °F 30.34 in West 4.8 mph 6.9 mph 41 % 0.00 in 32.0 W/m2 SCT
16:53 31.6 °F 11.1 °F 30.34 in SW 4.8 mph 11.5 mph 42 % 0.00 in 28.0 W/m2 SCT
16:58 31.4 °F 10.9 °F 30.34 in SW 5.2 mph 11.5 mph 42 % 0.00 in 23.0 W/m2 SCT
17:03 31.3 °F 10.8 °F 30.34 in West 2.4 mph 4.0 mph 42 % 0.00 in 19.0 W/m2 FEW
17:08 31.1 °F 10.6 °F 30.34 in West 6.4 mph 9.2 mph 42 % 0.00 in 16.0 W/m2 CLR
17:13 30.9 °F 11.0 °F 30.34 in West 3.4 mph 5.8 mph 43 % 0.00 in 11.0 W/m2 CLR
17:18 30.7 °F 11.3 °F 30.34 in West 2.6 mph 4.0 mph 44 % 0.00 in 5.0 W/m2 CLR
17:23 30.5 °F 11.1 °F 30.34 in West 1.6 mph 3.5 mph 44 % 0.00 in 0.0 W/m2 OVC
17:28 30.3 °F 11.5 °F 30.34 in West 0.7 mph 3.5 mph 45 % 0.00 in 0.0 W/m2 OVC
17:33 30.2 °F 11.4 °F 30.34 in West 0.2 mph 2.3 mph 45 % 0.00 in 0.0 W/m2 OVC
17:38 30.0 °F 11.2 °F 30.34 in Calm     45 % 0.00 in 0.0 W/m2 OVC
17:43 29.9 °F 11.1 °F 30.34 in West 0.9 mph 2.3 mph 45 % 0.00 in 0.0 W/m2 OVC
17:48 29.8 °F 11.0 °F 30.34 in West 0.7 mph 3.0 mph 45 % 0.00 in 0.0 W/m2 OVC
17:53 29.7 °F 11.4 °F 30.34 in WSW 3.0 mph 5.0 mph 46 % 0.00 in 0.0 W/m2 OVC
17:58 29.6 °F 11.3 °F 30.34 in WSW 2.0 mph 4.0 mph 46 % 0.00 in 0.0 W/m2 CLR
18:03 29.5 °F 11.2 °F 30.34 in WSW 0.6 mph 2.3 mph 46 % 0.00 in 0.0 W/m2 CLR
18:08 29.4 °F 11.1 °F 30.34 in WSW 0.3 mph 2.0 mph 46 % 0.00 in 0.0 W/m2 CLR
18:13 29.2 °F 11.4 °F 30.34 in WSW 1.0 mph 3.5 mph 47 % 0.00 in 0.0 W/m2 CLR
18:18 29.2 °F 11.4 °F 30.34 in West 1.4 mph 2.3 mph 47 % 0.00 in 0.0 W/m2 CLR
18:23 29.0 °F 11.7 °F 30.35 in WSW 0.6 mph 2.3 mph 48 % 0.00 in 0.0 W/m2 CLR
18:28 28.8 °F 11.6 °F 30.34 in WSW 0.3 mph 1.2 mph 48 % 0.00 in 0.0 W/m2 CLR
18:33 28.7 °F 11.9 °F 30.35 in WSW 0.2 mph 1.2 mph 49 % 0.00 in 0.0 W/m2 CLR
18:38 28.5 °F 11.7 °F 30.34 in Calm     49 % 0.00 in 0.0 W/m2 CLR
18:43 28.5 °F 11.7 °F 30.34 in WSW 1.7 mph 3.5 mph 49 % 0.00 in 0.0 W/m2 CLR
18:48 28.5 °F 11.7 °F 30.34 in Calm   1.2 mph 49 % 0.00 in 0.0 W/m2 CLR
18:53 28.1 °F 11.8 °F 30.35 in Calm     50 % 0.00 in 0.0 W/m2 CLR
18:58 27.7 °F 11.9 °F 30.34 in Calm     51 % 0.00 in 0.0 W/m2 CLR
19:03 27.5 °F 12.2 °F 30.34 in Calm     52 % 0.00 in 0.0 W/m2 CLR
19:08 27.3 °F 11.5 °F 30.34 in Calm     51 % 0.00 in 0.0 W/m2 CLR
19:13 27.3 °F 12.0 °F 30.34 in Calm     52 % 0.00 in 0.0 W/m2 CLR
19:18 27.2 °F 11.9 °F 30.34 in Calm     52 % 0.00 in 0.0 W/m2 CLR
19:23 27.1 °F 11.8 °F 30.33 in Calm     52 % 0.00 in 0.0 W/m2 CLR
19:28 27.2 °F 11.9 °F 30.33 in Calm     52 % 0.00 in 0.0 W/m2 CLR
19:34 27.1 °F 12.2 °F 30.33 in Calm     53 % 0.00 in 0.0 W/m2 CLR
19:39 27.0 °F 12.1 °F 30.33 in Calm     53 % 0.00 in 0.0 W/m2 CLR
19:44 26.7 °F 12.7 °F 30.33 in Calm     55 % 0.00 in 0.0 W/m2 CLR
19:49 26.5 °F 12.5 °F 30.33 in Calm     55 % 0.00 in 0.0 W/m2 CLR
19:54 26.4 °F 12.4 °F 30.33 in Calm     55 % 0.00 in 0.0 W/m2 CLR
19:59 26.2 °F 12.2 °F 30.34 in Calm     55 % 0.00 in 0.0 W/m2 CLR
20:04 25.9 °F 12.3 °F 30.34 in Calm     56 % 0.00 in 0.0 W/m2 CLR
20:09 25.8 °F 12.6 °F 30.34 in Calm     57 % 0.00 in 0.0 W/m2 CLR
20:14 25.9 °F 12.7 °F 30.34 in Calm     57 % 0.00 in 0.0 W/m2 CLR
20:19 25.8 °F 13.0 °F 30.34 in Calm     58 % 0.00 in 0.0 W/m2 CLR
20:24 25.8 °F 13.0 °F 30.34 in WSW 0.1 mph 1.0 mph 58 % 0.00 in 0.0 W/m2 CLR
20:29 25.6 °F 12.9 °F 30.34 in Calm     58 % 0.00 in 0.0 W/m2 CLR
20:34 25.3 °F 12.6 °F 30.34 in Calm     58 % 0.00 in 0.0 W/m2 CLR
20:39 25.0 °F 13.1 °F 30.34 in Calm     60 % 0.00 in 0.0 W/m2 CLR
20:44 24.8 °F 13.2 °F 30.34 in Calm     61 % 0.00 in 0.0 W/m2 CLR
20:49 24.9 °F 13.3 °F 30.34 in Calm     61 % 0.00 in 0.0 W/m2 CLR
20:54 25.0 °F 13.4 °F 30.34 in WSW 0.2 mph 2.0 mph 61 % 0.00 in 0.0 W/m2 CLR
20:59 24.8 °F 13.6 °F 30.34 in Calm     62 % 0.00 in 0.0 W/m2 CLR
21:04 24.9 °F 13.7 °F 30.34 in Calm     62 % 0.00 in 0.0 W/m2 CLR
21:09 25.0 °F 13.8 °F 30.33 in Calm     62 % 0.00 in 0.0 W/m2 CLR
21:14 25.0 °F 13.8 °F 30.33 in Calm     62 % 0.00 in 0.0 W/m2 CLR
21:19 24.9 °F 13.7 °F 30.33 in Calm     62 % 0.00 in 0.0 W/m2 CLR
21:24 25.0 °F 13.8 °F 30.33 in Calm     62 % 0.00 in 0.0 W/m2 CLR
21:29 25.2 °F 13.6 °F 30.32 in Calm     61 % 0.00 in 0.0 W/m2 CLR
21:34 25.3 °F 13.3 °F 30.31 in Calm     60 % 0.00 in 0.0 W/m2 CLR
21:39 25.2 °F 13.6 °F 30.31 in Calm     61 % 0.00 in 0.0 W/m2 CLR
21:44 25.3 °F 13.3 °F 30.32 in Calm     60 % 0.00 in 0.0 W/m2 CLR
21:49 25.2 °F 13.6 °F 30.32 in Calm     61 % 0.00 in 0.0 W/m2 CLR
21:54 25.1 °F 13.2 °F 30.31 in Calm     60 % 0.00 in 0.0 W/m2 CLR
21:59 25.1 °F 13.2 °F 30.31 in Calm     60 % 0.00 in 0.0 W/m2 CLR
22:04 25.1 °F 13.2 °F 30.31 in Calm     60 % 0.00 in 0.0 W/m2 CLR
22:09 25.2 °F 13.6 °F 30.32 in Calm     61 % 0.00 in 0.0 W/m2 CLR
22:14 25.0 °F 14.2 °F 30.31 in Calm     63 % 0.00 in 0.0 W/m2 CLR
22:19 25.1 °F 14.3 °F 30.31 in Calm     63 % 0.00 in 0.0 W/m2 CLR
22:24 25.0 °F 14.2 °F 30.31 in Calm     63 % 0.00 in 0.0 W/m2 CLR
22:29 24.9 °F 14.4 °F 30.30 in Calm     64 % 0.00 in 0.0 W/m2 CLR
22:34 24.7 °F 14.2 °F 30.30 in Calm     64 % 0.00 in 0.0 W/m2 CLR
22:39 24.8 °F 14.0 °F 30.30 in Calm     63 % 0.00 in 0.0 W/m2 CLR
22:44 24.6 °F 14.1 °F 30.29 in Calm     64 % 0.00 in 0.0 W/m2 CLR
22:49 24.5 °F 14.1 °F 30.29 in Calm     64 % 0.00 in 0.0 W/m2 CLR
22:54 24.7 °F 14.2 °F 30.29 in Calm     64 % 0.00 in 0.0 W/m2 CLR
22:59 24.6 °F 14.1 °F 30.28 in WSW 1.1 mph 1.2 mph 64 % 0.00 in 0.0 W/m2 CLR
23:04 24.5 °F 14.1 °F 30.29 in Calm     64 % 0.00 in 0.0 W/m2 CLR
23:09 24.5 °F 14.1 °F 30.29 in WSW 0.2 mph 2.3 mph 64 % 0.00 in 0.0 W/m2 CLR
23:14 24.4 °F 14.3 °F 30.28 in Calm     65 % 0.00 in 0.0 W/m2 CLR
23:20 24.3 °F 14.2 °F 30.28 in Calm     65 % 0.00 in 0.0 W/m2 CLR
23:25 24.3 °F 14.2 °F 30.28 in Calm     65 % 0.00 in 0.0 W/m2 CLR
23:30 24.2 °F 14.5 °F 30.28 in Calm     66 % 0.00 in 0.0 W/m2 CLR
23:35 24.3 °F 14.5 °F 30.28 in Calm     66 % 0.00 in 0.0 W/m2 CLR
23:40 24.2 °F 14.5 °F 30.28 in Calm     66 % 0.00 in 0.0 W/m2 CLR
23:45 24.2 °F 14.8 °F 30.28 in Calm     67 % 0.00 in 0.0 W/m2 CLR
23:50 24.1 °F 14.7 °F 30.28 in Calm     67 % 0.00 in 0.0 W/m2 CLR
23:55 24.2 °F 14.8 °F 30.28 in Calm     67 % 0.00 in 0.0 W/m2 CLR
Air Products Campus Weather
Compliments of Weather Underground - 3.5 mb